Terminal Aerodrome Forecast
Issued by NWS Blacksburg, VA

Home | Current Version | Previous Version | Text Only | Print | Product List | Glossary On
Versions: 1 2 3 4 5 6 7 8 9 10 11 12 13 14 15 16 17 18 19 20 21 22 23 24 25 26 27 28 29 30 31
000
FTUS41 KRNK 231725
TAFROA
TAF
KROA 231725Z 2318/2418 19004KT P6SM SCT050
     FM240200 00000KT P6SM SCT130
     FM240500 00000KT 2SM BR BKN008
     FM241000 00000KT 1/4SM FG SCT015
     FM241400 00000KT P6SM SCT250=

USA.gov is the U.S. government's official web portal to all federal, state and local government web resources and services.